sensor_id;sensor_type;location;lat;lon;timestamp;pressure;altitude;pressure_sealevel;temperature;humidity
13209;BME280;6669;42.678;23.332;2022-08-21T00:00:32;93887.66;;;18.17;100.00
13209;BME280;6669;42.678;23.332;2022-08-21T00:03:03;93896.09;;;18.19;100.00
13209;BME280;6669;42.678;23.332;2022-08-21T00:05:35;93883.19;;;18.18;100.00
13209;BME280;6669;42.678;23.332;2022-08-21T00:08:06;93873.94;;;18.15;100.00
13209;BME280;6669;42.678;23.332;2022-08-21T00:10:34;93877.13;;;18.17;100.00
13209;BME280;6669;42.678;23.332;2022-08-21T00:13:03;93877.38;;;18.16;100.00
13209;BME280;6669;42.678;23.332;2022-08-21T00:15:33;93878.72;;;18.18;100.00
13209;BME280;6669;42.678;23.332;2022-08-21T00:18:02;93870.91;;;18.23;100.00
13209;BME280;6669;42.678;23.332;2022-08-21T00:20:31;93870.38;;;18.21;100.00
13209;BME280;6669;42.678;23.332;2022-08-21T00:22:59;93864.31;;;18.21;100.00
13209;BME280;6669;42.678;23.332;2022-08-21T00:25:30;93866.47;;;18.24;100.00
13209;BME280;6669;42.678;23.332;2022-08-21T00:27:59;93863.34;;;18.27;100.00
13209;BME280;6669;42.678;23.332;2022-08-21T00:30:29;93856.16;;;18.22;100.00
13209;BME280;6669;42.678;23.332;2022-08-21T00:32:57;93853.06;;;18.25;100.00
13209;BME280;6669;42.678;23.332;2022-08-21T00:35:34;93856.09;;;18.34;100.00
13209;BME280;6669;42.678;23.332;2022-08-21T00:38:03;93843.66;;;18.29;100.00
13209;BME280;6669;42.678;23.332;2022-08-21T00:40:37;93856.09;;;18.34;100.00
13209;BME280;6669;42.678;23.332;2022-08-21T00:43:08;93852.66;;;18.34;100.00
13209;BME280;6669;42.678;23.332;2022-08-21T00:45:37;93858.75;;;18.34;100.00
13209;BME280;6669;42.678;23.332;2022-08-21T00:48:06;93871.00;;;18.28;100.00
13209;BME280;6669;42.678;23.332;2022-08-21T00:50:38;93868.78;;;18.37;100.00
13209;BME280;6669;42.678;23.332;2022-08-21T00:53:07;93870.84;;;18.35;100.00
13209;BME280;6669;42.678;23.332;2022-08-21T00:55:39;93873.78;;;18.39;100.00
13209;BME280;6669;42.678;23.332;2022-08-21T00:58:09;93866.47;;;18.41;100.00
13209;BME280;6669;42.678;23.332;2022-08-21T01:00:40;93861.84;;;18.48;100.00
13209;BME280;6669;42.678;23.332;2022-08-21T01:03:12;93850.28;;;18.49;100.00
13209;BME280;6669;42.678;23.332;2022-08-21T01:05:41;93859.50;;;18.52;100.00
13209;BME280;6669;42.678;23.332;2022-08-21T01:08:10;93849.97;;;18.45;100.00
13209;BME280;6669;42.678;23.332;2022-08-21T01:10:40;93849.22;;;18.50;100.00
13209;BME280;6669;42.678;23.332;2022-08-21T01:13:12;93847.63;;;18.49;100.00
13209;BME280;6669;42.678;23.332;2022-08-21T01:15:46;93847.56;;;18.44;100.00
13209;BME280;6669;42.678;23.332;2022-08-21T01:18:16;93842.00;;;18.40;100.00
13209;BME280;6669;42.678;23.332;2022-08-21T01:20:55;93841.13;;;18.35;100.00
13209;BME280;6669;42.678;23.332;2022-08-21T01:23:23;93834.25;;;18.34;100.00
13209;BME280;6669;42.678;23.332;2022-08-21T01:25:51;93836.88;;;18.34;100.00
13209;BME280;6669;42.678;23.332;2022-08-21T01:28:21;93839.84;;;18.37;100.00
13209;BME280;6669;42.678;23.332;2022-08-21T01:30:51;93835.13;;;18.39;100.00
13209;BME280;6669;42.678;23.332;2022-08-21T01:33:22;93829.63;;;18.41;100.00
13209;BME280;6669;42.678;23.332;2022-08-21T01:35:53;93829.47;;;18.48;100.00
13209;BME280;6669;42.678;23.332;2022-08-21T01:38:21;93829.13;;;18.44;100.00
13209;BME280;6669;42.678;23.332;2022-08-21T01:40:54;93843.66;;;18.46;100.00
13209;BME280;6669;42.678;23.332;2022-08-21T01:43:23;93844.31;;;18.37;100.00
13209;BME280;6669;42.678;23.332;2022-08-21T01:46:02;93844.38;;;18.42;100.00
13209;BME280;6669;42.678;23.332;2022-08-21T01:48:31;93842.78;;;18.41;100.00
13209;BME280;6669;42.678;23.332;2022-08-21T01:51:00;93841.25;;;18.45;100.00
13209;BME280;6669;42.678;23.332;2022-08-21T01:53:29;93839.75;;;18.49;100.00
13209;BME280;6669;42.678;23.332;2022-08-21T01:56:00;93846.19;;;18.41;100.00
13209;BME280;6669;42.678;23.332;2022-08-21T01:58:28;93837.28;;;18.42;100.00
13209;BME280;6669;42.678;23.332;2022-08-21T02:00:56;93840.72;;;18.43;100.00
13209;BME280;6669;42.678;23.332;2022-08-21T02:03:24;93841.44;;;18.38;100.00
13209;BME280;6669;42.678;23.332;2022-08-21T02:06:04;93842.38;;;18.32;100.00
13209;BME280;6669;42.678;23.332;2022-08-21T02:08:32;93844.69;;;18.28;100.00
13209;BME280;6669;42.678;23.332;2022-08-21T02:11:01;93844.44;;;18.30;100.00
13209;BME280;6669;42.678;23.332;2022-08-21T02:13:29;93855.28;;;18.34;100.00
13209;BME280;6669;42.678;23.332;2022-08-21T02:15:57;93855.06;;;18.35;100.00
13209;BME280;6669;42.678;23.332;2022-08-21T02:18:25;93847.16;;;18.35;100.00
13209;BME280;6669;42.678;23.332;2022-08-21T02:20:53;93854.03;;;18.36;100.00
13209;BME280;6669;42.678;23.332;2022-08-21T02:23:24;93854.03;;;18.36;100.00
13209;BME280;6669;42.678;23.332;2022-08-21T02:25:53;93853.16;;;18.30;100.00
13209;BME280;6669;42.678;23.332;2022-08-21T02:28:21;93857.84;;;18.28;100.00
13209;BME280;6669;42.678;23.332;2022-08-21T02:30:51;93857.84;;;18.28;100.00
13209;BME280;6669;42.678;23.332;2022-08-21T02:33:19;93869.97;;;18.29;100.00
13209;BME280;6669;42.678;23.332;2022-08-21T02:35:49;93876.34;;;18.34;100.00
13209;BME280;6669;42.678;23.332;2022-08-21T02:38:19;93868.22;;;18.35;100.00
13209;BME280;6669;42.678;23.332;2022-08-21T02:40:51;93864.09;;;18.39;100.00
13209;BME280;6669;42.678;23.332;2022-08-21T02:43:21;93856.19;;;18.39;100.00
13209;BME280;6669;42.678;23.332;2022-08-21T02:45:50;93853.22;;;18.36;100.00
13209;BME280;6669;42.678;23.332;2022-08-21T02:48:20;93853.56;;;18.39;100.00
13209;BME280;6669;42.678;23.332;2022-08-21T02:50:52;93856.41;;;18.38;100.00
13209;BME280;6669;42.678;23.332;2022-08-21T02:53:21;93857.84;;;18.28;100.00
13209;BME280;6669;42.678;23.332;2022-08-21T02:55:51;93859.84;;;18.21;100.00
13209;BME280;6669;42.678;23.332;2022-08-21T02:58:23;93850.03;;;18.34;100.00
13209;BME280;6669;42.678;23.332;2022-08-21T03:00:52;93851.31;;;18.31;100.00
13209;BME280;6669;42.678;23.332;2022-08-21T03:03:20;93864.22;;;18.33;100.00
13209;BME280;6669;42.678;23.332;2022-08-21T03:05:48;93857.13;;;18.33;100.00
13209;BME280;6669;42.678;23.332;2022-08-21T03:08:17;93870.66;;;18.25;100.00
13209;BME280;6669;42.678;23.332;2022-08-21T03:10:48;93872.84;;;18.28;100.00
13209;BME280;6669;42.678;23.332;2022-08-21T03:13:19;93870.91;;;18.23;100.00
13209;BME280;6669;42.678;23.332;2022-08-21T03:15:48;93873.16;;;18.32;100.00
13209;BME280;6669;42.678;23.332;2022-08-21T03:18:17;93852.03;;;18.26;100.00
13209;BME280;6669;42.678;23.332;2022-08-21T03:20:45;93852.84;;;18.27;100.00
13209;BME280;6669;42.678;23.332;2022-08-21T03:23:15;93852.50;;;18.23;100.00
13209;BME280;6669;42.678;23.332;2022-08-21T03:25:45;93868.69;;;18.15;100.00
13209;BME280;6669;42.678;23.332;2022-08-21T03:28:19;93870.41;;;18.09;100.00
13209;BME280;6669;42.678;23.332;2022-08-21T03:30:50;93865.97;;;18.10;100.00
13209;BME280;6669;42.678;23.332;2022-08-21T03:33:19;93865.72;;;18.11;100.00
13209;BME280;6669;42.678;23.332;2022-08-21T03:35:55;93849.53;;;18.03;100.00
13209;BME280;6669;42.678;23.332;2022-08-21T03:38:24;93856.41;;;18.04;100.00
13209;BME280;6669;42.678;23.332;2022-08-21T03:40:53;93855.91;;;18.07;100.00
13209;BME280;6669;42.678;23.332;2022-08-21T03:43:23;93842.34;;;17.98;100.00
13209;BME280;6669;42.678;23.332;2022-08-21T03:45:51;93833.56;;;17.92;100.00
13209;BME280;6669;42.678;23.332;2022-08-21T03:48:20;93848.19;;;18.00;100.00
13209;BME280;6669;42.678;23.332;2022-08-21T03:50:48;93844.97;;;17.98;100.00
13209;BME280;6669;42.678;23.332;2022-08-21T03:53:19;93855.75;;;17.96;100.00
13209;BME280;6669;42.678;23.332;2022-08-21T03:55:49;93860.78;;;17.86;100.00
13209;BME280;6669;42.678;23.332;2022-08-21T03:58:21;93868.00;;;17.91;100.00
13209;BME280;6669;42.678;23.332;2022-08-21T04:00:55;93873.56;;;17.94;100.00
13209;BME280;6669;42.678;23.332;2022-08-21T04:03:23;93868.19;;;17.89;100.00
13209;BME280;6669;42.678;23.332;2022-08-21T04:05:52;93876.09;;;17.89;100.00
13209;BME280;6669;42.678;23.332;2022-08-21T04:08:20;93871.75;;;17.95;100.00
13209;BME280;6669;42.678;23.332;2022-08-21T04:10:50;93871.06;;;17.88;100.00
13209;BME280;6669;42.678;23.332;2022-08-21T04:13:20;93872.44;;;17.90;100.00
13209;BME280;6669;42.678;23.332;2022-08-21T04:15:48;93877.94;;;17.89;100.00
13209;BME280;6669;42.678;23.332;2022-08-21T04:18:18;93870.28;;;17.87;100.00
13209;BME280;6669;42.678;23.332;2022-08-21T04:20:48;93872.91;;;17.87;100.00
13209;BME280;6669;42.678;23.332;2022-08-21T04:23:18;93863.34;;;17.81;100.00
13209;BME280;6669;42.678;23.332;2022-08-21T04:25:51;93861.06;;;17.73;100.00
13209;BME280;6669;42.678;23.332;2022-08-21T04:28:19;93866.63;;;17.59;100.00
13209;BME280;6669;42.678;23.332;2022-08-21T04:30:49;93877.31;;;17.70;100.00
13209;BME280;6669;42.678;23.332;2022-08-21T04:33:21;93863.94;;;17.71;100.00
13209;BME280;6669;42.678;23.332;2022-08-21T04:35:49;93867.22;;;17.78;100.00
13209;BME280;6669;42.678;23.332;2022-08-21T04:38:18;93868.34;;;17.83;100.00
13209;BME280;6669;42.678;23.332;2022-08-21T04:40:47;93868.78;;;17.91;100.00
13209;BME280;6669;42.678;23.332;2022-08-21T04:43:16;93872.66;;;17.89;100.00
13209;BME280;6669;42.678;23.332;2022-08-21T04:45:46;93864.13;;;17.93;100.00
13209;BME280;6669;42.678;23.332;2022-08-21T04:48:17;93864.66;;;17.95;100.00
13209;BME280;6669;42.678;23.332;2022-08-21T04:50:52;93865.69;;;17.94;100.00
13209;BME280;6669;42.678;23.332;2022-08-21T04:53:27;93867.88;;;17.97;100.00
13209;BME280;6669;42.678;23.332;2022-08-21T04:56:01;93866.34;;;18.02;100.00
13209;BME280;6669;42.678;23.332;2022-08-21T04:58:31;93859.28;;;18.02;100.00
13209;BME280;6669;42.678;23.332;2022-08-21T05:01:00;93855.03;;;18.01;100.00
13209;BME280;6669;42.678;23.332;2022-08-21T05:03:30;93853.53;;;18.05;100.00
13209;BME280;6669;42.678;23.332;2022-08-21T05:06:03;93857.09;;;17.99;100.00
13209;BME280;6669;42.678;23.332;2022-08-21T05:08:33;93858.69;;;18.00;100.00
13209;BME280;6669;42.678;23.332;2022-08-21T05:11:02;93867.47;;;18.06;100.00
13209;BME280;6669;42.678;23.332;2022-08-21T05:13:31;93868.03;;;18.08;100.00
13209;BME280;6669;42.678;23.332;2022-08-21T05:15:59;93867.34;;;18.12;100.00
13209;BME280;6669;42.678;23.332;2022-08-21T05:18:27;93861.50;;;18.10;100.00
13209;BME280;6669;42.678;23.332;2022-08-21T05:20:56;93861.34;;;18.00;100.00
13209;BME280;6669;42.678;23.332;2022-08-21T05:23:26;93865.41;;;18.08;100.00
13209;BME280;6669;42.678;23.332;2022-08-21T05:25:54;93866.28;;;18.13;100.00
13209;BME280;6669;42.678;23.332;2022-08-21T05:28:39;93862.47;;;18.21;100.00
13209;BME280;6669;42.678;23.332;2022-08-21T05:31:08;93865.34;;;18.37;100.00
13209;BME280;6669;42.678;23.332;2022-08-21T05:33:36;93861.59;;;18.33;100.00
13209;BME280;6669;42.678;23.332;2022-08-21T05:36:09;93866.38;;;18.36;100.00
13209;BME280;6669;42.678;23.332;2022-08-21T05:38:40;93859.94;;;18.43;100.00
13209;BME280;6669;42.678;23.332;2022-08-21T05:41:08;93860.72;;;18.61;100.00
13209;BME280;6669;42.678;23.332;2022-08-21T05:43:37;93857.22;;;18.72;100.00
13209;BME280;6669;42.678;23.332;2022-08-21T05:46:07;93852.22;;;18.76;100.00
13209;BME280;6669;42.678;23.332;2022-08-21T05:48:36;93857.16;;;18.89;100.00
13209;BME280;6669;42.678;23.332;2022-08-21T05:51:07;93849.19;;;19.01;100.00
13209;BME280;6669;42.678;23.332;2022-08-21T05:53:36;93850.16;;;18.95;100.00
13209;BME280;6669;42.678;23.332;2022-08-21T05:56:05;93855.19;;;18.97;100.00
13209;BME280;6669;42.678;23.332;2022-08-21T05:58:35;93854.16;;;18.98;100.00
13209;BME280;6669;42.678;23.332;2022-08-21T06:01:05;93853.66;;;19.01;100.00
13209;BME280;6669;42.678;23.332;2022-08-21T06:03:37;93847.50;;;19.12;100.00
13209;BME280;6669;42.678;23.332;2022-08-21T06:06:07;93862.66;;;19.05;100.00
13209;BME280;6669;42.678;23.332;2022-08-21T06:08:36;93858.81;;;19.13;100.00
13209;BME280;6669;42.678;23.332;2022-08-21T06:11:06;93844.09;;;19.17;100.00
13209;BME280;6669;42.678;23.332;2022-08-21T06:13:36;93856.31;;;19.23;100.00
13209;BME280;6669;42.678;23.332;2022-08-21T06:16:08;93849.47;;;19.22;100.00
13209;BME280;6669;42.678;23.332;2022-08-21T06:18:41;93859.06;;;19.33;100.00
13209;BME280;6669;42.678;23.332;2022-08-21T06:21:10;93852.28;;;19.37;100.00
13209;BME280;6669;42.678;23.332;2022-08-21T06:23:40;93853.69;;;19.45;100.00
13209;BME280;6669;42.678;23.332;2022-08-21T06:26:12;93855.16;;;19.58;100.00
13209;BME280;6669;42.678;23.332;2022-08-21T06:28:42;93862.38;;;19.68;100.00
13209;BME280;6669;42.678;23.332;2022-08-21T06:31:13;93862.06;;;19.64;100.00
13209;BME280;6669;42.678;23.332;2022-08-21T06:33:41;93861.16;;;19.75;100.00
13209;BME280;6669;42.678;23.332;2022-08-21T06:36:15;93859.81;;;19.73;100.00
13209;BME280;6669;42.678;23.332;2022-08-21T06:38:43;93862.38;;;19.90;100.00
13209;BME280;6669;42.678;23.332;2022-08-21T06:41:19;93867.78;;;20.05;100.00
13209;BME280;6669;42.678;23.332;2022-08-21T06:43:52;93860.22;;;19.87;100.00
13209;BME280;6669;42.678;23.332;2022-08-21T06:46:21;93867.03;;;20.10;100.00
13209;BME280;6669;42.678;23.332;2022-08-21T06:48:49;93870.78;;;20.14;100.00
13209;BME280;6669;42.678;23.332;2022-08-21T06:51:18;93864.88;;;20.34;100.00
13209;BME280;6669;42.678;23.332;2022-08-21T06:53:47;93880.41;;;20.31;100.00
13209;BME280;6669;42.678;23.332;2022-08-21T06:56:16;93876.78;;;20.37;100.00
13209;BME280;6669;42.678;23.332;2022-08-21T06:58:47;93879.75;;;20.46;100.00
13209;BME280;6669;42.678;23.332;2022-08-21T07:01:15;93891.88;;;20.41;100.00
13209;BME280;6669;42.678;23.332;2022-08-21T07:03:45;93897.34;;;20.67;100.00
13209;BME280;6669;42.678;23.332;2022-08-21T07:06:13;93880.75;;;20.72;100.00
13209;BME280;6669;42.678;23.332;2022-08-21T07:08:41;93892.53;;;20.92;100.00
13209;BME280;6669;42.678;23.332;2022-08-21T07:11:16;93897.53;;;20.93;100.00
13209;BME280;6669;42.678;23.332;2022-08-21T07:13:48;93892.31;;;21.03;100.00
13209;BME280;6669;42.678;23.332;2022-08-21T07:16:18;93886.53;;;21.06;100.00
13209;BME280;6669;42.678;23.332;2022-08-21T07:18:46;93895.66;;;20.88;100.00
13209;BME280;6669;42.678;23.332;2022-08-21T07:21:16;93896.03;;;20.37;100.00
13209;BME280;6669;42.678;23.332;2022-08-21T07:23:59;93891.16;;;19.97;100.00
13209;BME280;6669;42.678;23.332;2022-08-21T07:26:30;93880.53;;;20.14;100.00
13209;BME280;6669;42.678;23.332;2022-08-21T07:29:01;93889.97;;;20.37;100.00
13209;BME280;6669;42.678;23.332;2022-08-21T07:31:29;93881.94;;;20.59;100.00
13209;BME280;6669;42.678;23.332;2022-08-21T07:33:59;93879.88;;;20.61;100.00
13209;BME280;6669;42.678;23.332;2022-08-21T07:36:46;93877.69;;;20.53;100.00
13209;BME280;6669;42.678;23.332;2022-08-21T07:39:16;93867.00;;;20.70;100.00
13209;BME280;6669;42.678;23.332;2022-08-21T07:41:44;93877.06;;;20.73;100.00
13209;BME280;6669;42.678;23.332;2022-08-21T07:44:14;93866.44;;;20.68;100.00
13209;BME280;6669;42.678;23.332;2022-08-21T07:46:45;93878.25;;;20.87;100.00
13209;BME280;6669;42.678;23.332;2022-08-21T07:49:41;93867.19;;;20.96;100.00
13209;BME280;6669;42.678;23.332;2022-08-21T07:52:09;93864.66;;;21.16;100.00
13209;BME280;6669;42.678;23.332;2022-08-21T07:54:37;93876.38;;;21.31;100.00
13209;BME280;6669;42.678;23.332;2022-08-21T07:57:06;93865.25;;;21.29;100.00
13209;BME280;6669;42.678;23.332;2022-08-21T07:59:36;93892.22;;;21.31;100.00
13209;BME280;6669;42.678;23.332;2022-08-21T08:02:05;93892.41;;;21.19;100.00
13209;BME280;6669;42.678;23.332;2022-08-21T08:04:34;93880.28;;;21.23;100.00
13209;BME280;6669;42.678;23.332;2022-08-21T08:07:16;93879.53;;;21.33;100.00
13209;BME280;6669;42.678;23.332;2022-08-21T08:09:46;93884.78;;;21.28;100.00
13209;BME280;6669;42.678;23.332;2022-08-21T08:12:14;93889.59;;;21.31;100.00
13209;BME280;6669;42.678;23.332;2022-08-21T08:14:44;93900.13;;;21.26;100.00
13209;BME280;6669;42.678;23.332;2022-08-21T08:17:13;93885.38;;;21.35;100.00
13209;BME280;6669;42.678;23.332;2022-08-21T08:19:42;93884.59;;;21.34;100.00
13209;BME280;6669;42.678;23.332;2022-08-21T08:22:14;93881.44;;;21.43;100.00
13209;BME280;6669;42.678;23.332;2022-08-21T08:24:43;93892.72;;;21.28;100.00
13209;BME280;6669;42.678;23.332;2022-08-21T08:27:11;93883.38;;;21.10;100.00
13209;BME280;6669;42.678;23.332;2022-08-21T08:29:40;93890.88;;;21.23;100.00
13209;BME280;6669;42.678;23.332;2022-08-21T08:32:14;93881.97;;;21.39;100.00
13209;BME280;6669;42.678;23.332;2022-08-21T08:34:43;93892.38;;;21.62;100.00
13209;BME280;6669;42.678;23.332;2022-08-21T08:37:14;93892.72;;;21.86;100.00
13209;BME280;6669;42.678;23.332;2022-08-21T08:39:44;93901.50;;;21.97;100.00
13209;BME280;6669;42.678;23.332;2022-08-21T08:42:31;93895.41;;;22.07;100.00
13209;BME280;6669;42.678;23.332;2022-08-21T08:45:07;93907.88;;;22.21;100.00
13209;BME280;6669;42.678;23.332;2022-08-21T08:47:55;93905.53;;;22.35;100.00
13209;BME280;6669;42.678;23.332;2022-08-21T08:50:28;93906.63;;;22.40;100.00
13209;BME280;6669;42.678;23.332;2022-08-21T08:53:02;93904.25;;;22.69;100.00
13209;BME280;6669;42.678;23.332;2022-08-21T08:55:40;93907.41;;;22.81;100.00
13209;BME280;6669;42.678;23.332;2022-08-21T08:58:16;93912.44;;;22.83;100.00
13209;BME280;6669;42.678;23.332;2022-08-21T09:00:47;93910.34;;;22.69;100.00
13209;BME280;6669;42.678;23.332;2022-08-21T09:03:21;93905.31;;;22.73;100.00
13209;BME280;6669;42.678;23.332;2022-08-21T09:05:56;93902.66;;;22.89;100.00
13209;BME280;6669;42.678;23.332;2022-08-21T09:08:43;93893.63;;;22.95;100.00
13209;BME280;6669;42.678;23.332;2022-08-21T09:11:25;93886.19;;;22.97;100.00
13209;BME280;6669;42.678;23.332;2022-08-21T09:14:04;93881.97;;;23.16;100.00
13209;BME280;6669;42.678;23.332;2022-08-21T09:16:42;93887.25;;;23.27;100.00
13209;BME280;6669;42.678;23.332;2022-08-21T09:19:34;93897.03;;;23.26;100.00
13209;BME280;6669;42.678;23.332;2022-08-21T09:22:11;93899.97;;;23.20;100.00
13209;BME280;6669;42.678;23.332;2022-08-21T09:24:49;93885.91;;;23.29;100.00
13209;BME280;6669;42.678;23.332;2022-08-21T09:27:22;93879.22;;;23.42;100.00
13209;BME280;6669;42.678;23.332;2022-08-21T09:29:52;93889.25;;;23.56;100.00
13209;BME280;6669;42.678;23.332;2022-08-21T09:32:23;93891.31;;;23.74;100.00
13209;BME280;6669;42.678;23.332;2022-08-21T09:35:08;93887.59;;;23.75;100.00
13209;BME280;6669;42.678;23.332;2022-08-21T09:37:50;93887.53;;;23.86;100.00
13209;BME280;6669;42.678;23.332;2022-08-21T09:40:36;93894.78;;;24.25;100.00
13209;BME280;6669;42.678;23.332;2022-08-21T09:43:10;93892.81;;;24.41;100.00
13209;BME280;6669;42.678;23.332;2022-08-21T09:45:45;93895.06;;;24.18;100.00
13209;BME280;6669;42.678;23.332;2022-08-21T09:48:18;93893.53;;;24.52;100.00
13209;BME280;6669;42.678;23.332;2022-08-21T09:51:09;93897.75;;;24.58;100.00
13209;BME280;6669;42.678;23.332;2022-08-21T09:53:44;93898.34;;;24.44;100.00
13209;BME280;6669;42.678;23.332;2022-08-21T09:56:21;93903.19;;;24.37;100.00
13209;BME280;6669;42.678;23.332;2022-08-21T09:59:17;93906.47;;;24.24;100.00
13209;BME280;6669;42.678;23.332;2022-08-21T10:01:50;93896.41;;;24.15;100.00
13209;BME280;6669;42.678;23.332;2022-08-21T10:04:23;93889.81;;;24.08;100.00
13209;BME280;6669;42.678;23.332;2022-08-21T10:06:54;93888.25;;;24.07;100.00
13209;BME280;6669;42.678;23.332;2022-08-21T10:09:39;93884.75;;;24.11;100.00
13209;BME280;6669;42.678;23.332;2022-08-21T10:12:13;93887.59;;;24.25;100.00
13209;BME280;6669;42.678;23.332;2022-08-21T10:14:50;93889.50;;;24.20;100.00
13209;BME280;6669;42.678;23.332;2022-08-21T10:17:29;93894.88;;;24.04;100.00
13209;BME280;6669;42.678;23.332;2022-08-21T10:20:04;93892.94;;;24.20;100.00
13209;BME280;6669;42.678;23.332;2022-08-21T10:25:33;93880.06;;;24.43;100.00
13209;BME280;6669;42.678;23.332;2022-08-21T10:28:36;93884.16;;;24.64;100.00
13209;BME280;6669;42.678;23.332;2022-08-21T10:31:15;93884.94;;;24.94;100.00
13209;BME280;6669;42.678;23.332;2022-08-21T10:34:11;93879.81;;;24.74;100.00
13209;BME280;6669;42.678;23.332;2022-08-21T10:37:06;93877.50;;;24.96;100.00
13209;BME280;6669;42.678;23.332;2022-08-21T10:39:46;93881.63;;;25.37;100.00
13209;BME280;6669;42.678;23.332;2022-08-21T10:42:36;93883.38;;;25.71;100.00
13209;BME280;6669;42.678;23.332;2022-08-21T10:45:15;93876.88;;;26.40;100.00
13209;BME280;6669;42.678;23.332;2022-08-21T10:47:54;93892.81;;;27.11;100.00
13209;BME280;6669;42.678;23.332;2022-08-21T10:50:29;93893.91;;;27.24;100.00
13209;BME280;6669;42.678;23.332;2022-08-21T10:53:15;93889.88;;;27.27;100.00
13209;BME280;6669;42.678;23.332;2022-08-21T10:55:55;93885.25;;;27.46;100.00
13209;BME280;6669;42.678;23.332;2022-08-21T10:58:30;93885.13;;;27.93;100.00
13209;BME280;6669;42.678;23.332;2022-08-21T11:01:08;93886.50;;;28.04;100.00
13209;BME280;6669;42.678;23.332;2022-08-21T11:03:42;93885.44;;;28.05;100.00
13209;BME280;6669;42.678;23.332;2022-08-21T11:06:16;93872.13;;;28.28;100.00
13209;BME280;6669;42.678;23.332;2022-08-21T11:08:51;93869.56;;;28.91;100.00
13209;BME280;6669;42.678;23.332;2022-08-21T11:11:29;93869.31;;;29.01;100.00
13209;BME280;6669;42.678;23.332;2022-08-21T11:14:09;93855.19;;;29.41;100.00
13209;BME280;6669;42.678;23.332;2022-08-21T11:16:42;93857.75;;;29.64;100.00
13209;BME280;6669;42.678;23.332;2022-08-21T11:19:17;93857.72;;;30.13;100.00
13209;BME280;6669;42.678;23.332;2022-08-21T11:21:50;93858.34;;;30.45;100.00
13209;BME280;6669;42.678;23.332;2022-08-21T11:24:29;93850.16;;;30.24;100.00
13209;BME280;6669;42.678;23.332;2022-08-21T11:27:15;93855.34;;;30.29;100.00
13209;BME280;6669;42.678;23.332;2022-08-21T11:29:54;93853.44;;;29.37;100.00
13209;BME280;6669;42.678;23.332;2022-08-21T11:32:39;93843.97;;;29.30;100.00
13209;BME280;6669;42.678;23.332;2022-08-21T11:35:41;93846.72;;;28.62;100.00
13209;BME280;6669;42.678;23.332;2022-08-21T11:38:27;93841.56;;;28.89;100.00
13209;BME280;6669;42.678;23.332;2022-08-21T11:41:16;93854.78;;;29.25;100.00
13209;BME280;6669;42.678;23.332;2022-08-21T11:44:06;93844.84;;;28.63;100.00
13209;BME280;6669;42.678;23.332;2022-08-21T11:46:52;93848.47;;;28.21;100.00
13209;BME280;6669;42.678;23.332;2022-08-21T11:49:57;93844.59;;;27.77;100.00
13209;BME280;6669;42.678;23.332;2022-08-21T11:52:54;93842.22;;;27.34;100.00
13209;BME280;6669;42.678;23.332;2022-08-21T11:55:31;93841.94;;;27.21;100.00
13209;BME280;6669;42.678;23.332;2022-08-21T11:58:06;93840.94;;;26.89;100.00
13209;BME280;6669;42.678;23.332;2022-08-21T12:00:42;93837.78;;;27.01;100.00
13209;BME280;6669;42.678;23.332;2022-08-21T12:03:14;93833.16;;;26.74;100.00
13209;BME280;6669;42.678;23.332;2022-08-21T12:05:52;93824.97;;;26.37;100.00
13209;BME280;6669;42.678;23.332;2022-08-21T12:08:28;93826.81;;;26.37;100.00
13209;BME280;6669;42.678;23.332;2022-08-21T12:11:04;93823.84;;;26.24;100.00
13209;BME280;6669;42.678;23.332;2022-08-21T12:13:36;93807.13;;;26.19;100.00
13209;BME280;6669;42.678;23.332;2022-08-21T12:16:32;93812.75;;;26.17;100.00
13209;BME280;6669;42.678;23.332;2022-08-21T12:19:04;93820.59;;;26.27;100.00
13209;BME280;6669;42.678;23.332;2022-08-21T12:21:47;93816.72;;;26.20;100.00
13209;BME280;6669;42.678;23.332;2022-08-21T12:24:20;93824.91;;;26.04;100.00
13209;BME280;6669;42.678;23.332;2022-08-21T12:26:54;93831.03;;;26.05;100.00
13209;BME280;6669;42.678;23.332;2022-08-21T12:29:26;93835.03;;;26.02;100.00
13209;BME280;6669;42.678;23.332;2022-08-21T12:32:01;93833.19;;;26.03;100.00
13209;BME280;6669;42.678;23.332;2022-08-21T12:34:35;93829.06;;;25.72;100.00
13209;BME280;6669;42.678;23.332;2022-08-21T12:37:10;93827.28;;;25.87;100.00
13209;BME280;6669;42.678;23.332;2022-08-21T12:39:44;93822.47;;;25.89;100.00
13209;BME280;6669;42.678;23.332;2022-08-21T12:42:17;93832.16;;;25.79;100.00
13209;BME280;6669;42.678;23.332;2022-08-21T12:44:50;93822.53;;;25.84;100.00
13209;BME280;6669;42.678;23.332;2022-08-21T12:47:32;93820.06;;;25.87;100.00
13209;BME280;6669;42.678;23.332;2022-08-21T12:50:05;93812.97;;;25.83;100.00
13209;BME280;6669;42.678;23.332;2022-08-21T12:52:41;93820.94;;;25.83;100.00
13209;BME280;6669;42.678;23.332;2022-08-21T12:55:12;93823.16;;;25.75;100.00
13209;BME280;6669;42.678;23.332;2022-08-21T12:57:42;93818.56;;;25.81;100.00
13209;BME280;6669;42.678;23.332;2022-08-21T13:00:13;93821.00;;;25.58;100.00
13209;BME280;6669;42.678;23.332;2022-08-21T13:02:47;93816.59;;;25.49;100.00
13209;BME280;6669;42.678;23.332;2022-08-21T13:05:25;93811.50;;;25.28;100.00
13209;BME280;6669;42.678;23.332;2022-08-21T13:07:56;93806.19;;;25.28;100.00
13209;BME280;6669;42.678;23.332;2022-08-21T13:10:28;93808.44;;;25.16;100.00
13209;BME280;6669;42.678;23.332;2022-08-21T13:12:59;93810.31;;;25.15;100.00
13209;BME280;6669;42.678;23.332;2022-08-21T13:15:39;93810.88;;;25.12;100.00
13209;BME280;6669;42.678;23.332;2022-08-21T13:18:26;93806.34;;;25.12;100.00
13209;BME280;6669;42.678;23.332;2022-08-21T13:21:07;93806.78;;;25.20;100.00
13209;BME280;6669;42.678;23.332;2022-08-21T13:23:35;93797.97;;;25.24;100.00